Latest Weather Observations for Gympie

IDQ60801

Issued at 8:05 pm EST Tuesday 23 September 2014 (issued every 30 minutes, with the page automatically refreshed every 10 minutes)

About weather observations | Map of weather stations | Latest weather observations for QLD | Other Formats
Station Details ID: 040093 Name: GYMPIE Lat: -26.18 Lon: 152.64 Height: 64.5 m
Data from the previous 72 hours. | See also: Recent months at Gympie
Date/Time
EST
Temp
°C
App
Temp
°C
Dew
Point
Rel
Hum
%
Delta-T
°C
Wind Press
QNH
hPa
Press
MSL
hPa
Rain
since 9 am
mm
Dir
 
Spd
km/h
Gust
km/h
Spd
kts
Gust
kts
23/08:00pm 17.3 16.7 13.4 78 2.2 SE 9 17 5 9 1026.0 1025.8 0.0
23/07:30pm 17.2 17.9 13.5 79 2.1 SSE 2 4 1 2 1025.7 1025.5 0.0
23/07:00pm 18.1 17.1 13.4 74 2.7 E 11 20 6 11 1025.6 1025.4 0.0
23/06:30pm 19.1 18.5 12.4 65 3.7 SE 7 13 4 7 1025.2 1025.0 0.0
23/06:00pm 19.6 18.1 11.9 61 4.3 ESE 11 19 6 10 1025.2 1025.0 0.0
23/05:30pm 20.0 18.0 11.5 58 4.7 ESE 13 20 7 11 1025.0 1024.8 0.0
23/05:00pm 20.6 17.9 10.4 52 5.5 E 15 22 8 12 1024.8 1024.6 0.0
23/04:30pm 21.6 19.6 10.1 48 6.3 ESE 11 19 6 10 1024.7 1024.5 0.0
23/04:00pm 21.9 19.6 10.4 48 6.3 E 13 28 7 15 1024.5 1024.3 0.0
23/03:30pm 21.7 19.2 11.1 51 5.9 ESE 15 26 8 14 1024.3 1024.1 0.0
23/03:00pm 21.4 18.9 10.9 51 5.8 ESE 15 30 8 16 1024.3 1024.1 0.0
23/02:30pm 21.9 18.6 11.0 50 6.0 ESE 19 32 10 17 1024.3 1024.1 0.0
23/02:00pm 21.4 19.3 11.1 52 5.7 SE 13 26 7 14 1024.7 1024.5 0.0
23/01:30pm 21.3 19.2 11.3 53 5.5 SE 13 22 7 12 1025.3 1025.1 0.0
23/01:00pm 21.2 18.4 11.5 54 5.4 SE 17 26 9 14 1025.4 1025.2 0.0
23/12:30pm 21.1 18.3 11.4 54 5.4 SE 17 30 9 16 1025.8 1025.6 0.0
23/12:00pm 21.1 17.7 11.4 54 5.4 SE 20 30 11 16 1025.9 1025.7 0.0
23/11:30am 21.4 18.2 12.0 55 5.3 SSE 20 33 11 18 1026.5 1026.3 0.0
23/11:00am 21.6 18.4 11.3 52 5.7 ESE 19 30 10 16 1027.0 1026.8 0.0
23/10:30am 23.0 20.9 13.5 55 5.5 ESE 17 24 9 13 1027.3 1027.1 0.0
23/10:00am 21.5 20.8 15.3 68 3.7 SSE 13 20 7 11 1027.5 1027.4 0.0
23/09:30am 19.8 19.1 14.2 70 3.2 SSE 11 15 6 8 1027.7 1027.6 0.0
23/09:00am 19.6 19.2 15.3 76 2.5 SSE 11 17 6 9 1027.8 1027.7 11.2
23/08:30am 19.2 18.8 15.3 78 2.3 SSE 11 17 6 9 1027.6 1027.5 11.2
23/08:00am 17.9 17.9 15.2 84 1.6 SSE 9 17 5 9 1027.5 1027.4 11.2
23/07:30am 17.2 17.7 15.5 90 1.0 S 7 11 4 6 1027.3 1027.1 11.2
23/07:00am 16.4 17.0 15.8 96 0.4 S 7 13 4 7 1026.7 1026.5 11.2
23/06:30am 15.7 16.3 15.2 97 0.3 S 6 11 3 6 1026.5 1026.3 11.2
23/06:00am 15.4 15.9 14.9 97 0.3 S 6 11 3 6 1026.1 1025.9 11.2
23/05:30am 15.2 15.6 14.7 97 0.3 S 6 9 3 5 1025.9 1025.7 11.2
23/05:00am 15.2 15.6 14.7 97 0.3 S 6 7 3 4 1025.4 1025.2 11.2
23/04:30am 15.2 15.6 14.7 97 0.3 SE 6 11 3 6 1025.4 1025.2 11.2
23/04:00am 15.3 16.0 14.5 95 0.5 ESE 4 7 2 4 1025.1 1024.9 9.8
23/03:30am 15.5 16.6 14.5 94 0.6 SE 2 6 1 3 1025.0 1024.8 9.2
23/03:00am 15.2 15.8 14.2 94 0.6 S 4 9 2 5 1024.9 1024.7 9.0
23/02:30am 15.2 15.4 14.1 93 0.6 S 6 9 3 5 1025.1 1024.9 9.0
23/02:00am 15.1 15.2 13.8 92 0.7 S 6 9 3 5 1025.5 1025.3 9.0
23/01:30am 15.3 15.4 14.0 92 0.7 SSE 6 13 3 7 1025.7 1025.5 9.0
23/01:00am 14.9 16.3 14.4 97 0.3 CALM 0 2 0 1 1026.2 1026.0 9.0
23/12:30am 15.1 16.5 14.5 96 0.3 CALM 0 2 0 1 1026.3 1026.1 9.0
23/12:00am 15.1 16.2 14.5 96 0.3 SSW 2 4 1 2 1026.6 1026.4 9.0
 
Date/Time
EST
Temp
°C
App
Temp
°C
Dew
Point
Rel
Hum
%
Delta-T
°C
Wind Press
QNH
hPa
Press
MSL
hPa
Rain
since 9 am
mm
Dir
 
Spd
km/h
Gust
km/h
Spd
kts
Gust
kts
22/11:30pm 14.9 16.1 13.9 94 0.6 CALM 0 0 0 0 1026.6 1026.4 8.6
22/11:00pm 14.9 15.9 14.3 96 0.3 SSE 2 4 1 2 1026.6 1026.4 8.6
22/10:30pm 14.8 16.1 14.0 95 0.5 CALM 0 0 0 0 1026.8 1026.6 8.2
22/10:00pm 15.1 16.5 14.3 95 0.5 CALM 0 0 0 0 1026.7 1026.5 8.2
22/09:30pm 15.1 16.2 14.5 96 0.3 S 2 2 1 1 1026.8 1026.6 8.2
22/09:00pm 15.0 15.6 14.2 95 0.5 S 4 6 2 3 1026.8 1026.6 8.2
22/08:30pm 14.9 15.4 14.1 95 0.5 SSE 4 6 2 3 1026.8 1026.6 8.2
22/08:00pm 15.4 16.8 14.4 94 0.6 CALM 0 6 0 3 1026.8 1026.6 8.2
22/07:30pm 15.5 16.9 14.5 94 0.6 CALM 0 0 0 0 1026.8 1026.6 8.0
22/07:00pm 15.6 16.6 14.3 92 0.7 SSE 2 4 1 2 1026.5 1026.3 7.6
22/06:30pm 15.5 15.7 14.2 92 0.7 SE 6 9 3 5 1025.8 1025.6 7.4
22/06:00pm 15.9 15.2 14.4 91 0.9 SSE 11 19 6 10 1025.8 1025.6 7.4
22/05:30pm 16.4 15.8 14.6 89 1.0 ESE 11 19 6 10 1025.3 1025.1 7.2
22/05:00pm 16.0 15.9 14.9 93 0.6 SE 9 20 5 11 1025.6 1025.4 6.4
22/04:30pm 16.5 16.9 15.4 93 0.6 NNE 7 19 4 10 1025.2 1025.0 2.8
22/04:00pm 16.2 16.4 14.7 91 0.9 SE 7 15 4 8 1024.9 1024.7 1.8
22/03:30pm 17.3 15.4 14.2 82 1.8 ENE 17 28 9 15 1024.9 1024.7 0.0
22/03:00pm 20.4 18.0 11.3 56 5.0 SE 15 28 8 15 1024.3 1024.1 0.0
22/02:30pm 21.3 18.3 10.8 51 5.8 SSE 17 28 9 15 1024.1 1023.9 0.0
22/02:00pm 21.6 18.7 11.0 51 5.8 ESE 17 22 9 12 1024.4 1024.2 0.0
22/01:30pm 21.9 18.3 10.7 49 6.2 SE 20 33 11 18 1024.6 1024.4 0.0
22/01:00pm 21.7 18.2 10.2 48 6.2 SE 19 32 10 17 1025.0 1024.8 0.0
22/12:30pm 22.5 17.1 9.6 44 7.0 ESE 28 43 15 23 1025.1 1024.9 0.0
22/12:00pm 22.1 18.6 10.9 49 6.2 ESE 20 35 11 19 1025.6 1025.4 0.0
22/11:30am 20.8 16.5 10.9 53 5.4 E 24 35 13 19 1025.8 1025.6 0.0
22/11:00am 20.7 17.3 10.5 52 5.5 SE 19 30 10 16 1026.0 1025.8 0.0
22/10:30am 20.5 17.1 11.4 56 5.0 SE 20 35 11 19 1026.1 1025.9 0.0
22/10:00am 20.9 18.1 11.5 55 5.2 SE 17 32 9 17 1026.4 1026.2 0.0
22/09:30am 20.5 17.4 11.7 57 4.9 SE 19 32 10 17 1026.4 1026.2 0.0
22/09:00am 20.7 19.9 14.1 66 3.8 SE 11 20 6 11 1026.3 1026.1 0.4
22/08:30am 19.1 18.3 13.9 72 3.0 S 11 19 6 10 1026.0 1025.8 0.4
22/08:00am 19.4 19.4 15.1 76 2.5 SSE 9 19 5 10 1025.9 1025.7 0.4
22/07:30am 17.8 17.5 14.3 80 2.0 SSE 9 17 5 9 1025.6 1025.4 0.4
22/07:00am 16.4 16.4 14.1 86 1.3 SSE 7 13 4 7 1025.4 1025.2 0.4
22/06:30am 15.1 14.9 13.5 90 0.9 SSE 7 11 4 6 1024.7 1024.5 0.4
22/06:00am 14.2 14.8 13.2 94 0.6 SSE 2 6 1 3 1024.7 1024.5 0.4
22/05:30am 14.1 13.9 13.1 94 0.6 SE 6 7 3 4 1024.5 1024.3 0.4
22/05:00am 14.3 14.2 13.3 94 0.6 S 6 6 3 3 1024.6 1024.4 0.2
22/04:30am 14.1 13.9 13.1 94 0.6 SE 6 9 3 5 1024.5 1024.3 0.2
22/04:00am 14.4 14.3 13.3 93 0.6 ESE 6 9 3 5 1024.4 1024.2 0.2
22/03:30am 14.0 14.2 13.2 95 0.4 SSE 4 6 2 3 1024.3 1024.1 0.2
22/03:00am 14.2 14.9 13.4 95 0.4 SSE 2 4 1 2 1024.4 1024.2 0.2
22/02:30am 13.9 13.7 13.0 94 0.5 S 6 6 3 3 1024.5 1024.3 0.2
22/02:00am 14.4 14.3 13.3 93 0.6 SSE 6 7 3 4 1024.7 1024.5 0.2
22/01:30am 15.0 14.9 13.2 89 1.0 SSE 6 9 3 5 1025.2 1025.0 0.0
22/01:00am 14.9 14.6 12.8 87 1.2 SSE 6 7 3 4 1025.7 1025.5 0.0
22/12:30am 15.4 15.2 12.9 85 1.4 SE 6 7 3 4 1025.7 1025.5 0.0
22/12:00am 15.7 15.2 12.8 83 1.6 S 7 11 4 6 1025.9 1025.7 0.0
 
Date/Time
EST
Temp
°C
App
Temp
°C
Dew
Point
Rel
Hum
%
Delta-T
°C
Wind Press
QNH
hPa
Press
MSL
hPa
Rain
since 9 am
mm
Dir
 
Spd
km/h
Gust
km/h
Spd
kts
Gust
kts
21/11:30pm 15.4 14.9 12.2 81 1.7 S 6 9 3 5 1026.3 1026.1 0.0
21/11:00pm 15.7 16.1 12.6 82 1.7 SSE 2 4 1 2 1026.1 1025.9 0.0
21/10:30pm 15.6 15.7 12.7 83 1.6 SSE 4 6 2 3 1025.8 1025.6 0.0
21/10:00pm 15.8 16.0 12.9 83 1.6 S 4 6 2 3 1026.4 1026.2 0.0
21/09:30pm 15.5 15.6 12.8 84 1.5 S 4 6 2 3 1026.1 1025.9 0.0
21/09:00pm 15.9 15.4 12.6 81 1.8 S 7 11 4 6 1026.0 1025.8 0.0
21/08:30pm 16.3 16.3 12.5 78 2.1 SSE 4 6 2 3 1025.9 1025.7 0.0
21/08:00pm 16.6 16.1 12.2 75 2.4 SSE 6 7 3 4 1025.8 1025.6 0.0
21/07:30pm 17.0 16.5 12.5 75 2.5 SSE 7 11 4 6 1025.6 1025.4 0.0
21/07:00pm 17.0 16.5 12.5 75 2.5 SSE 7 15 4 8 1025.2 1025.0 0.0
21/06:30pm 17.3 16.7 12.4 73 2.7 SSE 7 11 4 6 1025.1 1024.9 0.0
21/06:00pm 17.9 17.4 12.8 72 2.8 SSE 7 11 4 6 1024.6 1024.4 0.0
21/05:30pm 18.4 17.8 13.5 73 2.8 SE 9 15 5 8 1023.9 1023.7 0.0
21/05:00pm 18.8 17.4 13.4 71 3.1 SE 13 20 7 11 1023.9 1023.7 0.0
21/04:30pm 19.0 17.5 13.2 69 3.3 SSE 13 24 7 13 1023.6 1023.4 0.0
21/04:00pm 18.8 18.1 13.2 70 3.2 SSE 9 15 5 8 1023.4 1023.2 0.0
21/03:30pm 19.3 18.0 12.6 65 3.8 SSE 11 22 6 12 1023.4 1023.2 0.0
21/03:00pm 19.5 17.4 12.5 64 3.9 ESE 15 28 8 15 1023.2 1023.0 0.0
21/02:30pm 20.6 18.2 11.5 56 5.0 ESE 15 22 8 12 1022.8 1022.7 0.0
21/02:00pm 21.3 19.0 11.9 55 5.3 ESE 15 26 8 14 1023.1 1022.9 0.0
21/01:30pm 20.8 18.0 11.2 54 5.3 ESE 17 26 9 14 1023.4 1023.2 0.0
21/01:00pm 21.5 19.1 11.5 53 5.6 E 15 32 8 17 1023.4 1023.2 0.0
21/12:30pm 23.3 20.7 10.7 45 7.0 ESE 15 22 8 12 1023.8 1023.6 0.0
21/12:00pm 21.9 19.9 11.6 52 5.7 SE 13 22 7 12 1024.5 1024.3 0.0
21/11:30am 20.6 18.7 11.8 57 4.9 SE 13 24 7 13 1024.6 1024.4 0.0
21/11:00am 20.3 17.9 11.5 57 4.9 SE 15 26 8 14 1025.1 1024.9 0.0
21/10:30am 20.4 18.5 11.9 58 4.7 SSE 13 24 7 13 1025.5 1025.3 0.0
21/10:00am 20.1 17.7 11.3 57 4.8 SSE 15 22 8 12 1025.6 1025.4 0.0
21/09:30am 19.5 18.0 12.0 62 4.2 SSE 11 17 6 9 1025.7 1025.5 0.0
21/09:00am 19.5 19.0 12.8 65 3.8 SSE 7 15 4 8 1025.8 1025.6 0.0
21/08:30am 19.0 17.5 12.0 64 3.9 S 11 19 6 10 1025.8 1025.6 0.0
21/08:00am 18.5 17.4 12.0 66 3.6 SSE 9 15 5 8 1025.4 1025.2 0.0
21/07:30am 17.7 17.5 13.0 74 2.6 SSE 6 9 3 5 1025.1 1024.9 0.0
21/07:00am 15.8 16.2 13.6 87 1.2 SSE 4 6 2 3 1024.8 1024.6 0.0
21/06:30am 15.0 15.2 13.2 89 1.0 SE 4 7 2 4 1024.6 1024.4 0.0
21/06:00am 14.9 16.0 13.4 91 0.8 CALM 0 2 0 1 1024.3 1024.1 0.0
21/05:30am 14.9 15.2 13.4 91 0.8 SSE 4 4 2 2 1024.0 1023.8 0.0
21/05:00am 15.3 16.5 13.8 91 0.8 CALM 0 0 0 0 1023.8 1023.6 0.0
21/04:30am 15.3 16.5 13.7 90 0.9 CALM 0 0 0 0 1023.7 1023.5 0.0
21/04:00am 15.3 15.7 13.8 91 0.8 SE 4 7 2 4 1023.3 1023.1 0.0
21/03:30am 15.6 15.7 13.8 89 1.0 SSE 6 11 3 6 1023.1 1022.9 0.0
21/03:00am 15.6 16.0 13.6 88 1.1 SE 4 6 2 3 1023.2 1023.0 0.0
21/02:30am 15.7 15.7 13.5 87 1.2 S 6 9 3 5 1023.4 1023.2 0.0
21/02:00am 16.0 15.9 13.8 87 1.2 S 7 11 4 6 1023.7 1023.5 0.0
21/01:30am 16.0 17.2 14.9 93 0.6 S 2 6 1 3 1023.7 1023.5 0.0
21/01:00am 16.0 16.3 14.9 93 0.6 SE 7 11 4 6 1023.5 1023.3 0.0
21/12:30am 16.0 16.8 14.7 92 0.7 SSE 4 6 2 3 1023.9 1023.7 0.0
21/12:00am 16.0 17.5 14.7 92 0.7 CALM 0 0 0 0 1024.0 1023.8 0.0
 
Date/Time
EST
Temp
°C
App
Temp
°C
Dew
Point
Rel
Hum
%
Delta-T
°C
Wind Press
QNH
hPa
Press
MSL
hPa
Rain
since 9 am
mm
Dir
 
Spd
km/h
Gust
km/h
Spd
kts
Gust
kts
20/11:30pm 15.8 16.9 14.7 93 0.6 SE 2 4 1 2 1024.0 1023.8 0.0
20/11:00pm 15.7 16.4 14.6 93 0.6 SSE 4 7 2 4 1024.0 1023.8 0.0
20/10:30pm 15.9 16.6 14.6 92 0.7 SSE 4 7 2 4 1023.9 1023.7 0.0
20/10:00pm 16.2 16.5 14.6 90 0.9 SSE 6 7 3 4 1023.7 1023.5 0.0
20/09:30pm 16.6 16.8 14.8 89 1.0 SSE 7 13 4 7 1023.5 1023.3 0.0
20/09:00pm 16.6 16.4 14.6 88 1.1 SSE 9 17 5 9 1023.3 1023.1 0.0
20/08:30pm 16.7 17.0 15.1 90 0.9 S 7 13 4 7 1023.3 1023.1 0.0

Other Formats:

Comma delimited format used in spreadsheet applications
http://www.bom.gov.au/fwo/IDQ60801/IDQ60801.94566.axf

JavaScript Object Notation format (JSON) in row-major order
http://www.bom.gov.au/fwo/IDQ60801/IDQ60801.94566.json